createdAt,value
2022-09-30T00:01:39.848Z,49.92
2022-09-30T00:04:14.714Z,49.85
2022-09-30T00:06:42.866Z,49.86
2022-09-30T00:09:11.544Z,49.58
2022-09-30T00:11:40.900Z,49.67
2022-09-30T00:14:13.614Z,49.75
2022-09-30T00:16:41.590Z,49.46
2022-09-30T00:19:11.043Z,49.57
2022-09-30T00:21:39.350Z,49.26
2022-09-30T00:24:07.979Z,49.54
2022-09-30T00:26:36.521Z,49.47
2022-09-30T00:29:05.218Z,49.53
2022-09-30T00:31:35.735Z,49.20
2022-09-30T00:34:11.284Z,49.21
2022-09-30T00:36:44.349Z,49.02
2022-09-30T00:39:15.038Z,49.14
2022-09-30T00:41:43.458Z,49.12
2022-09-30T00:44:57.182Z,48.80
2022-09-30T00:47:55.925Z,48.85
2022-09-30T00:50:33.696Z,48.63
2022-09-30T00:53:09.589Z,48.78
2022-09-30T00:55:46.114Z,48.60
2022-09-30T00:58:18.958Z,48.58
2022-09-30T01:00:47.420Z,48.42
2022-09-30T01:03:15.409Z,48.35
2022-09-30T01:05:44.556Z,48.35
2022-09-30T01:08:13.898Z,48.30
2022-09-30T01:10:42.199Z,48.09
2022-09-30T01:13:10.229Z,48.19
2022-09-30T01:16:08.472Z,48.36
2022-09-30T01:18:48.281Z,48.21
2022-09-30T01:21:46.223Z,48.30
2022-09-30T01:24:33.924Z,48.24
2022-09-30T01:27:36.867Z,48.29
2022-09-30T01:30:20.223Z,48.02
2022-09-30T01:33:08.200Z,48.12
2022-09-30T01:35:48.915Z,48.20
2022-09-30T01:38:29.424Z,48.07
2022-09-30T01:41:06.908Z,48.08
2022-09-30T01:43:44.735Z,47.87
2022-09-30T01:46:22.658Z,47.95
2022-09-30T01:49:02.864Z,47.73
2022-09-30T01:51:35.966Z,47.72
2022-09-30T01:54:08.740Z,47.78
2022-09-30T01:56:43.255Z,47.62
2022-09-30T01:59:17.462Z,47.57
2022-09-30T02:01:53.214Z,47.48
2022-09-30T02:04:27.675Z,47.53
2022-09-30T02:07:01.010Z,47.38
2022-09-30T02:09:36.015Z,47.35
2022-09-30T02:12:11.443Z,47.35
2022-09-30T02:14:43.484Z,47.30
2022-09-30T02:17:16.703Z,47.34
2022-09-30T02:19:48.876Z,47.23
2022-09-30T02:22:21.437Z,47.18
2022-09-30T02:24:54.526Z,47.13
2022-09-30T02:27:28.069Z,47.03
2022-09-30T02:30:00.365Z,47.18
2022-09-30T02:32:31.348Z,47.04
2022-09-30T02:35:06.878Z,47.08
2022-09-30T02:37:38.793Z,46.74
2022-09-30T02:40:11.870Z,47.65
2022-09-30T02:42:42.067Z,47.78
2022-09-30T02:45:16.500Z,47.30
2022-09-30T02:47:59.526Z,48.24
2022-09-30T02:50:33.194Z,47.69
2022-09-30T02:53:15.558Z,47.76
2022-09-30T02:55:57.190Z,47.81
2022-09-30T02:58:27.349Z,47.64
2022-09-30T03:00:56.901Z,47.78
2022-09-30T03:03:30.861Z,47.76
2022-09-30T03:06:00.409Z,47.99
2022-09-30T03:08:28.429Z,47.66
2022-09-30T03:10:56.486Z,47.81
2022-09-30T03:13:54.825Z,48.17
2022-09-30T03:16:36.224Z,48.22
2022-09-30T03:19:24.031Z,48.35
2022-09-30T03:22:13.129Z,47.87
2022-09-30T03:24:54.783Z,47.94
2022-09-30T03:27:32.524Z,47.49
2022-09-30T03:30:05.436Z,47.51
2022-09-30T03:32:50.764Z,47.44
2022-09-30T03:35:27.210Z,47.41
2022-09-30T03:38:03.059Z,47.32
2022-09-30T03:40:38.562Z,47.21
2022-09-30T03:43:10.929Z,47.20
2022-09-30T03:45:46.715Z,47.18
2022-09-30T03:48:16.540Z,47.10
2022-09-30T03:50:45.417Z,46.91
2022-09-30T03:53:14.935Z,47.00
2022-09-30T03:55:48.940Z,46.96
2022-09-30T03:58:17.329Z,46.77
2022-09-30T04:00:50.640Z,47.07
2022-09-30T04:03:19.752Z,46.86
2022-09-30T04:05:48.530Z,46.69
2022-09-30T04:08:18.243Z,46.76
2022-09-30T04:10:46.494Z,46.43
2022-09-30T04:13:14.429Z,46.88
2022-09-30T04:15:42.369Z,46.57
2022-09-30T04:18:10.355Z,46.76
2022-09-30T04:20:39.771Z,46.60
2022-09-30T04:23:07.771Z,46.50
2022-09-30T04:25:37.152Z,46.58
2022-09-30T04:28:05.073Z,46.62
2022-09-30T04:30:33.831Z,46.77
2022-09-30T04:33:01.857Z,46.52
2022-09-30T04:35:30.343Z,46.35
2022-09-30T04:38:01.204Z,46.40
2022-09-30T04:40:29.203Z,46.67
2022-09-30T04:42:59.259Z,46.10
2022-09-30T04:45:27.237Z,45.04
2022-09-30T04:47:55.119Z,45.63
2022-09-30T04:50:25.347Z,47.35
2022-09-30T04:52:57.834Z,46.57
2022-09-30T04:55:25.857Z,46.49
2022-09-30T04:57:53.762Z,46.53
2022-09-30T05:00:25.019Z,46.68
2022-09-30T05:02:53.648Z,46.21
2022-09-30T05:05:21.761Z,46.26
2022-09-30T05:07:49.689Z,46.15
2022-09-30T05:10:17.954Z,46.11
2022-09-30T05:12:46.011Z,46.03
2022-09-30T05:15:14.043Z,45.76
2022-09-30T05:17:45.342Z,45.89
2022-09-30T05:20:14.890Z,45.91
2022-09-30T05:22:45.499Z,46.22
2022-09-30T05:25:13.473Z,46.13
2022-09-30T05:27:41.403Z,46.04
2022-09-30T05:30:10.454Z,45.92
2022-09-30T05:32:38.369Z,45.50
2022-09-30T05:35:12.177Z,44.80
2022-09-30T05:37:40.329Z,44.67
2022-09-30T05:40:09.486Z,44.66
2022-09-30T05:42:38.057Z,44.72
2022-09-30T05:45:07.093Z,44.66
2022-09-30T05:47:35.762Z,44.62
2022-09-30T05:50:03.767Z,44.58
2022-09-30T05:52:33.163Z,44.55
2022-09-30T05:55:01.655Z,44.51
2022-09-30T05:57:30.138Z,44.35
2022-09-30T05:59:58.172Z,44.49
2022-09-30T06:02:26.688Z,44.23
2022-09-30T06:04:56.869Z,44.21
2022-09-30T06:07:24.879Z,44.34
2022-09-30T06:09:56.178Z,44.26
2022-09-30T06:12:26.253Z,44.23
2022-09-30T06:14:54.226Z,44.34
2022-09-30T06:17:22.717Z,44.36
2022-09-30T06:19:50.913Z,44.53
2022-09-30T06:22:20.030Z,44.37
2022-09-30T06:24:50.428Z,44.63
2022-09-30T06:27:23.636Z,44.64
2022-09-30T06:29:54.572Z,44.50
2022-09-30T06:32:22.545Z,44.47
2022-09-30T06:34:52.571Z,44.62
2022-09-30T06:37:20.781Z,44.55
2022-09-30T06:39:52.022Z,44.42
2022-09-30T06:42:20.201Z,44.43
2022-09-30T06:44:53.487Z,44.49
2022-09-30T06:47:25.578Z,44.41
2022-09-30T06:49:58.692Z,44.23
2022-09-30T06:52:27.441Z,44.33
2022-09-30T06:54:56.722Z,44.41
2022-09-30T06:57:26.792Z,44.45
2022-09-30T06:59:56.234Z,44.32
2022-09-30T07:02:24.506Z,44.40
2022-09-30T07:04:52.540Z,44.33
2022-09-30T07:07:22.341Z,44.29
2022-09-30T07:09:50.351Z,44.33
2022-09-30T07:12:18.489Z,44.31
2022-09-30T07:14:46.980Z,44.38
2022-09-30T07:17:16.235Z,44.22
2022-09-30T07:19:44.184Z,44.30
2022-09-30T07:22:31.942Z,44.27
2022-09-30T07:25:01.211Z,44.34
2022-09-30T07:27:30.940Z,44.37
2022-09-30T07:30:13.302Z,44.31
2022-09-30T07:32:47.549Z,44.43
2022-09-30T07:35:15.534Z,44.46
2022-09-30T07:37:43.752Z,44.18
2022-09-30T07:40:14.391Z,44.48
2022-09-30T07:42:46.015Z,44.42
2022-09-30T07:45:19.254Z,44.66
2022-09-30T07:47:53.469Z,44.62
2022-09-30T07:50:22.099Z,44.64
2022-09-30T07:52:50.002Z,44.65
2022-09-30T07:55:17.936Z,44.68
2022-09-30T07:57:45.902Z,44.75
2022-09-30T08:00:37.793Z,44.75
2022-09-30T08:03:03.731Z,44.76
2022-09-30T08:05:31.740Z,44.57
2022-09-30T08:07:59.703Z,44.95
2022-09-30T08:10:27.658Z,44.92
2022-09-30T08:12:58.037Z,45.01
2022-09-30T08:15:27.722Z,44.96
2022-09-30T08:17:55.681Z,45.09
2022-09-30T08:20:25.101Z,45.14
2022-09-30T08:22:54.050Z,45.18
2022-09-30T08:25:22.651Z,45.19
2022-09-30T08:27:50.614Z,45.24
2022-09-30T08:30:18.813Z,45.25
2022-09-30T08:32:46.717Z,45.15
2022-09-30T08:35:14.676Z,45.28
2022-09-30T08:37:43.970Z,45.38
2022-09-30T08:40:20.516Z,45.38
2022-09-30T08:43:04.660Z,45.37
2022-09-30T08:45:41.893Z,45.31
2022-09-30T08:48:22.562Z,45.45
2022-09-30T08:51:02.199Z,45.57
2022-09-30T08:53:35.800Z,45.63
2022-09-30T08:56:05.234Z,45.48
2022-09-30T08:58:36.556Z,45.45
2022-09-30T09:01:14.510Z,45.42
2022-09-30T09:03:45.372Z,45.54
2022-09-30T09:06:28.261Z,45.37
2022-09-30T09:09:19.735Z,45.43
2022-09-30T09:12:00.559Z,45.50
2022-09-30T09:14:43.339Z,45.36
2022-09-30T09:17:21.806Z,45.74
2022-09-30T09:20:00.197Z,45.60
2022-09-30T09:22:28.641Z,45.40
2022-09-30T09:25:01.011Z,45.58
2022-09-30T09:27:38.665Z,45.51
2022-09-30T09:30:09.021Z,45.46
2022-09-30T09:32:37.671Z,45.47
2022-09-30T09:35:15.666Z,45.53
2022-09-30T09:38:13.556Z,45.39
2022-09-30T09:40:57.477Z,45.42
2022-09-30T09:43:35.020Z,45.44
2022-09-30T09:46:13.244Z,45.32
2022-09-30T09:48:41.539Z,45.34
2022-09-30T09:51:17.354Z,45.37
2022-09-30T09:53:50.378Z,45.19
2022-09-30T09:56:21.291Z,45.19
2022-09-30T09:59:10.181Z,45.18
2022-09-30T10:01:42.969Z,45.63
2022-09-30T10:04:17.818Z,45.16
2022-09-30T10:06:49.711Z,45.11
2022-09-30T10:09:35.398Z,44.97
2022-09-30T10:12:30.168Z,45.29
2022-09-30T10:15:01.429Z,44.91
2022-09-30T10:17:31.642Z,44.60
2022-09-30T10:20:03.986Z,44.90
2022-09-30T10:22:33.682Z,44.89
2022-09-30T10:25:25.260Z,44.74
2022-09-30T10:27:58.260Z,44.68
2022-09-30T10:30:52.228Z,44.61
2022-09-30T10:33:30.612Z,44.71
2022-09-30T10:36:04.274Z,44.62
2022-09-30T10:38:34.794Z,44.72
2022-09-30T10:41:05.082Z,44.65
2022-09-30T10:43:40.573Z,44.96
2022-09-30T10:46:27.516Z,44.78
2022-09-30T10:48:57.644Z,44.57
2022-09-30T10:51:30.001Z,44.66
2022-09-30T10:53:58.395Z,44.63
2022-09-30T10:56:45.580Z,44.61
2022-09-30T10:59:21.058Z,44.73
2022-09-30T11:01:57.453Z,44.70
2022-09-30T11:04:38.914Z,44.82
2022-09-30T11:07:18.954Z,44.68
2022-09-30T11:09:54.520Z,44.60
2022-09-30T11:12:31.524Z,44.61
2022-09-30T11:15:09.325Z,44.47
2022-09-30T11:17:44.520Z,44.44
2022-09-30T11:20:19.631Z,44.52
2022-09-30T11:22:55.485Z,44.76
2022-09-30T11:25:28.758Z,44.50
2022-09-30T11:28:18.070Z,44.72
2022-09-30T11:30:58.627Z,44.61
2022-09-30T11:33:43.355Z,44.41
2022-09-30T11:36:22.546Z,44.45
2022-09-30T11:39:08.952Z,44.36
2022-09-30T11:41:39.771Z,44.25
2022-09-30T11:44:23.414Z,44.25
2022-09-30T11:47:09.515Z,44.43
2022-09-30T11:50:06.058Z,44.12
2022-09-30T11:52:47.186Z,44.08
2022-09-30T11:55:44.792Z,44.16
2022-09-30T11:58:39.794Z,44.10
2022-09-30T12:01:23.490Z,44.16
2022-09-30T12:04:02.487Z,44.13
2022-09-30T12:06:35.198Z,43.94
2022-09-30T12:09:10.566Z,44.13
2022-09-30T12:11:45.744Z,44.11
2022-09-30T12:14:19.525Z,43.86
2022-09-30T12:16:51.179Z,44.00
2022-09-30T12:19:29.181Z,43.75
2022-09-30T12:22:03.058Z,43.68
2022-09-30T12:24:37.981Z,43.80
2022-09-30T12:27:06.737Z,43.91
2022-09-30T12:29:58.235Z,43.79
2022-09-30T12:33:15.298Z,43.66
2022-09-30T12:36:21.845Z,43.87
2022-09-30T12:39:08.912Z,43.74
2022-09-30T12:42:00.734Z,43.80
2022-09-30T12:45:10.509Z,43.67
2022-09-30T12:47:47.693Z,44.72
2022-09-30T12:50:23.234Z,44.65
2022-09-30T12:52:53.918Z,44.75
2022-09-30T12:55:31.264Z,44.90
2022-09-30T12:58:02.296Z,45.21
2022-09-30T13:00:34.650Z,45.13
2022-09-30T13:03:15.504Z,45.10
2022-09-30T13:05:54.390Z,45.45
2022-09-30T13:08:26.408Z,45.12
2022-09-30T13:10:59.202Z,45.24
2022-09-30T13:13:30.851Z,45.23
2022-09-30T13:16:03.549Z,45.38
2022-09-30T13:19:00.971Z,45.17
2022-09-30T13:21:32.239Z,45.34
2022-09-30T13:24:00.628Z,44.92
2022-09-30T13:27:10.551Z,45.52
2022-09-30T13:29:48.493Z,45.52
2022-09-30T13:32:32.850Z,45.48
2022-09-30T13:35:02.134Z,45.56
2022-09-30T13:37:39.935Z,45.62
2022-09-30T13:40:32.738Z,45.45
2022-09-30T13:43:17.680Z,45.42
2022-09-30T13:45:50.921Z,45.50
2022-09-30T13:48:23.479Z,45.52
2022-09-30T13:50:53.419Z,45.67
2022-09-30T13:53:29.644Z,45.55
2022-09-30T13:55:59.539Z,45.61
2022-09-30T13:59:01.363Z,45.85
2022-09-30T14:01:47.267Z,45.74
2022-09-30T14:04:36.530Z,45.62
2022-09-30T14:07:16.437Z,45.54
2022-09-30T14:10:09.123Z,45.43
2022-09-30T14:13:03.124Z,45.61
2022-09-30T14:16:01.799Z,45.75
2022-09-30T14:18:54.992Z,45.41
2022-09-30T14:21:36.978Z,45.28
2022-09-30T14:24:12.007Z,45.24
2022-09-30T14:26:59.748Z,45.95
2022-09-30T14:29:40.267Z,46.00
2022-09-30T14:32:14.780Z,46.43
2022-09-30T14:34:43.947Z,46.17
2022-09-30T14:37:19.364Z,45.67
2022-09-30T14:39:49.524Z,45.37
2022-09-30T14:42:25.253Z,45.48
2022-09-30T14:44:55.942Z,45.65
2022-09-30T14:47:26.843Z,45.83
2022-09-30T14:49:56.278Z,45.89
2022-09-30T14:52:36.527Z,45.67
2022-09-30T14:55:23.529Z,45.88
2022-09-30T14:57:51.494Z,45.96
2022-09-30T15:00:27.909Z,45.87
2022-09-30T15:02:56.148Z,45.83
2022-09-30T15:05:26.705Z,45.80
2022-09-30T15:07:55.644Z,45.66
2022-09-30T15:10:25.202Z,45.57
2022-09-30T15:12:55.896Z,45.51
2022-09-30T15:15:34.599Z,45.47
2022-09-30T15:18:17.734Z,45.75
2022-09-30T15:20:47.223Z,45.79
2022-09-30T15:23:19.162Z,45.55
2022-09-30T15:25:47.160Z,45.52
2022-09-30T15:28:15.285Z,45.58
2022-09-30T15:30:43.520Z,45.74
2022-09-30T15:33:18.836Z,45.58
2022-09-30T15:35:48.225Z,45.61
2022-09-30T15:38:22.175Z,45.67
2022-09-30T15:40:59.120Z,45.68
2022-09-30T15:43:39.693Z,45.61
2022-09-30T15:46:23.471Z,45.78
2022-09-30T15:48:51.454Z,45.51
2022-09-30T15:51:32.788Z,45.52
2022-09-30T15:54:02.034Z,45.86
2022-09-30T15:56:36.139Z,45.60
2022-09-30T15:59:06.437Z,45.57
2022-09-30T16:01:37.934Z,45.46
2022-09-30T16:04:10.866Z,45.53
2022-09-30T16:06:47.708Z,45.61
2022-09-30T16:09:30.826Z,45.74
2022-09-30T16:12:05.227Z,45.50
2022-09-30T16:14:37.359Z,45.51
2022-09-30T16:17:06.949Z,46.42
2022-09-30T16:19:35.553Z,46.29
2022-09-30T16:22:04.864Z,46.42
2022-09-30T16:25:02.414Z,46.90
2022-09-30T16:27:32.742Z,47.16
2022-09-30T16:30:01.378Z,47.98
2022-09-30T16:32:33.931Z,49.30
2022-09-30T16:35:01.900Z,49.64
2022-09-30T16:37:31.216Z,50.46
2022-09-30T16:40:10.396Z,50.83
2022-09-30T16:42:38.612Z,52.12
2022-09-30T16:45:09.887Z,52.00
2022-09-30T16:47:37.810Z,52.73
2022-09-30T16:50:17.645Z,53.39
2022-09-30T16:52:47.001Z,52.90
2022-09-30T16:57:48.225Z,51.36
2022-09-30T17:00:19.075Z,50.50
2022-09-30T17:02:50.758Z,50.73
2022-09-30T17:05:21.674Z,49.86
2022-09-30T17:07:53.111Z,49.99
2022-09-30T17:10:24.140Z,49.97
2022-09-30T17:12:53.532Z,48.89
2022-09-30T17:15:22.029Z,49.37
2022-09-30T17:17:51.341Z,50.00
2022-09-30T17:20:19.269Z,49.74
2022-09-30T17:22:47.927Z,49.85
2022-09-30T17:25:17.933Z,50.42
2022-09-30T17:27:50.016Z,50.11
2022-09-30T17:30:18.376Z,50.04
2022-09-30T17:32:46.307Z,49.78
2022-09-30T17:35:14.709Z,49.59
2022-09-30T17:37:45.564Z,49.15
2022-09-30T17:40:32.342Z,49.58
2022-09-30T17:43:14.480Z,49.97
2022-09-30T17:45:44.042Z,49.87
2022-09-30T17:48:12.595Z,49.77
2022-09-30T17:50:42.281Z,49.95
2022-09-30T17:53:13.125Z,49.88
2022-09-30T17:55:41.348Z,49.30
2022-09-30T17:58:12.469Z,49.45
2022-09-30T18:00:40.625Z,49.17
2022-09-30T18:03:11.022Z,49.37
2022-09-30T18:05:39.124Z,49.35
2022-09-30T18:08:07.017Z,48.93
2022-09-30T18:10:37.304Z,49.11
2022-09-30T18:13:05.315Z,49.04
2022-09-30T18:15:39.123Z,48.98
2022-09-30T18:18:10.982Z,49.18
2022-09-30T18:20:44.926Z,49.48
2022-09-30T18:23:16.473Z,49.11
2022-09-30T18:25:44.795Z,49.52
2022-09-30T18:28:14.109Z,49.73
2022-09-30T18:30:43.871Z,48.94
2022-09-30T18:33:11.905Z,48.42
2022-09-30T18:35:40.643Z,49.10
2022-09-30T18:38:09.110Z,49.31
2022-09-30T18:40:37.977Z,49.44
2022-09-30T18:43:06.050Z,49.50
2022-09-30T18:45:36.633Z,49.41
2022-09-30T18:48:08.579Z,49.60
2022-09-30T18:50:37.395Z,49.79
2022-09-30T18:53:09.406Z,49.74
2022-09-30T18:55:38.633Z,50.12
2022-09-30T18:58:06.758Z,50.05
2022-09-30T19:00:34.831Z,49.97
2022-09-30T19:03:02.736Z,50.38
2022-09-30T19:05:32.032Z,50.33
2022-09-30T19:08:02.362Z,50.32
2022-09-30T19:10:33.042Z,50.45
2022-09-30T19:13:01.377Z,50.58
2022-09-30T19:15:29.273Z,50.70
2022-09-30T19:17:57.490Z,50.71
2022-09-30T19:20:25.631Z,50.66
2022-09-30T19:22:54.949Z,50.69
2022-09-30T19:25:22.861Z,50.88
2022-09-30T19:27:50.968Z,50.93
2022-09-30T19:30:19.656Z,50.70
2022-09-30T19:32:47.587Z,51.01
2022-09-30T19:35:17.140Z,49.83
2022-09-30T19:37:58.898Z,50.49
2022-09-30T19:43:05.048Z,49.97
2022-09-30T19:45:35.399Z,48.87
2022-09-30T19:48:03.359Z,49.85
2022-09-30T19:50:31.244Z,49.91
2022-09-30T19:52:59.632Z,49.91
2022-09-30T19:55:27.644Z,49.64
2022-09-30T19:57:56.997Z,49.79
2022-09-30T20:00:24.995Z,49.94
2022-09-30T20:02:52.907Z,49.47
2022-09-30T20:05:21.601Z,49.46
2022-09-30T20:07:51.235Z,49.25
2022-09-30T20:10:19.784Z,49.25
2022-09-30T20:12:47.784Z,49.20
2022-09-30T20:15:34.815Z,49.19
2022-09-30T20:18:02.712Z,49.20
2022-09-30T20:20:37.226Z,49.22
2022-09-30T20:23:05.292Z,49.00
2022-09-30T20:25:35.525Z,49.27
2022-09-30T20:28:04.829Z,49.16
2022-09-30T20:30:35.243Z,49.26
2022-09-30T20:33:03.204Z,48.87
2022-09-30T20:35:35.958Z,49.00
2022-09-30T20:38:10.288Z,48.98
2022-09-30T20:40:38.358Z,49.11
2022-09-30T20:43:07.803Z,48.93
2022-09-30T20:45:40.087Z,48.90
2022-09-30T20:48:09.494Z,48.85
2022-09-30T20:50:43.399Z,48.71
2022-09-30T20:53:13.865Z,49.02
2022-09-30T20:55:44.482Z,48.94
2022-09-30T20:58:13.737Z,48.98
2022-09-30T21:00:43.836Z,48.90
2022-09-30T21:03:13.740Z,48.92
2022-09-30T21:05:41.994Z,48.92
2022-09-30T21:08:09.909Z,48.95
2022-09-30T21:10:38.677Z,48.96
2022-09-30T21:13:11.377Z,49.12
2022-09-30T21:15:43.061Z,49.18
2022-09-30T21:18:11.224Z,49.16
2022-09-30T21:20:39.141Z,49.03
2022-09-30T21:23:07.060Z,48.90
2022-09-30T21:25:34.983Z,48.93
2022-09-30T21:28:03.390Z,48.84
2022-09-30T21:30:31.437Z,49.19
2022-09-30T21:33:00.690Z,49.13
2022-09-30T21:35:30.720Z,49.22
2022-09-30T21:37:58.642Z,49.04
2022-09-30T21:40:28.295Z,49.03
2022-09-30T21:42:56.261Z,49.19
2022-09-30T21:45:25.270Z,49.38
2022-09-30T21:48:03.294Z,49.00
2022-09-30T21:50:32.202Z,49.08
2022-09-30T21:53:04.614Z,49.04
2022-09-30T21:55:33.440Z,49.07
2022-09-30T21:58:01.555Z,48.87
2022-09-30T22:00:29.595Z,49.17
2022-09-30T22:02:58.589Z,49.36
2022-09-30T22:05:27.892Z,49.38
2022-09-30T22:07:55.793Z,49.22
2022-09-30T22:10:23.677Z,49.54
2022-09-30T22:12:51.605Z,49.37
2022-09-30T22:15:19.630Z,49.17
2022-09-30T22:17:47.515Z,49.58
2022-09-30T22:20:15.626Z,49.41
2022-09-30T22:22:44.934Z,49.33
2022-09-30T22:25:12.899Z,49.58
2022-09-30T22:27:40.838Z,49.48
2022-09-30T22:30:10.686Z,49.55
2022-09-30T22:32:38.623Z,49.74
2022-09-30T22:35:25.120Z,49.39
2022-09-30T22:38:11.706Z,49.27
2022-09-30T22:40:39.653Z,48.52
2022-09-30T22:43:07.630Z,48.84
2022-09-30T22:45:36.126Z,49.18
2022-09-30T22:48:04.653Z,48.86
2022-09-30T22:50:36.518Z,48.98
2022-09-30T22:53:05.764Z,48.81
2022-09-30T22:55:34.879Z,48.83
2022-09-30T22:58:02.798Z,48.67
2022-09-30T23:00:31.488Z,48.71
2022-09-30T23:02:59.406Z,48.72
2022-09-30T23:05:27.707Z,48.81
2022-09-30T23:07:55.568Z,48.53
2022-09-30T23:10:25.343Z,48.72
2022-09-30T23:12:53.433Z,48.80
2022-09-30T23:15:21.360Z,48.56
2022-09-30T23:17:49.333Z,48.78
2022-09-30T23:20:17.409Z,48.63
2022-09-30T23:22:45.321Z,48.63
2022-09-30T23:25:13.468Z,48.61
2022-09-30T23:27:42.828Z,48.82
2022-09-30T23:30:11.466Z,48.42
2022-09-30T23:32:39.410Z,48.71
2022-09-30T23:35:08.158Z,48.44
2022-09-30T23:37:36.612Z,48.61
2022-09-30T23:40:05.106Z,48.41
2022-09-30T23:42:33.284Z,48.43
2022-09-30T23:45:05.229Z,48.63
2022-09-30T23:47:34.444Z,48.65
2022-09-30T23:50:02.372Z,48.63
2022-09-30T23:52:30.376Z,48.43
2022-09-30T23:54:58.371Z,48.47
2022-09-30T23:57:26.306Z,48.56
2022-09-30T23:59:54.253Z,48.45
